Time;durP1;ratioP1;P1;durP2;ratioP2;P2;SDS_P1;SDS_P2;PMS_P1;PMS_P2;Temp;Humidity;BMP_temperature;BMP_pressure;BME280_temperature;BME280_humidity;BME280_pressure;Samples;Min_cycle;Max_cycle;Signal;HPM_P1;HPM_P2
2021/05/31 00:03:06;;;;;;;2.35;2.15;;;;;;;7.78;70.37;96761.91;5117721;58;20153;-74
2021/05/31 00:08:09;;;;;;;3.65;2.95;;;;;;;7.76;69.82;96749.78;5118553;58;20642;-74
2021/05/31 00:13:11;;;;;;;3.70;2.50;;;;;;;7.73;71.26;96751.47;5120753;57;20186;-74
2021/05/31 00:18:15;;;;;;;3.03;2.75;;;;;;;7.49;71.36;96747.34;5121530;57;20122;-75
2021/05/31 00:23:19;;;;;;;2.97;2.70;;;;;;;7.37;71.95;96742.56;5121314;57;20221;-74
2021/05/31 00:28:22;;;;;;;4.15;3.08;;;;;;;7.40;71.78;96749.16;5121422;57;20141;-75
2021/05/31 00:33:24;;;;;;;4.05;3.03;;;;;;;7.46;71.62;96747.44;5120984;57;20123;-75
2021/05/31 00:38:27;;;;;;;3.10;2.75;;;;;;;7.30;73.12;96742.75;5120849;57;20126;-75
2021/05/31 00:43:34;;;;;;;3.88;3.50;;;;;;;7.23;72.88;96738.19;5121088;57;20161;-74
2021/05/31 00:48:38;;;;;;;3.50;2.90;;;;;;;7.29;73.07;96737.66;5122553;57;20132;-75
2021/05/31 00:53:41;;;;;;;3.17;2.88;;;;;;;7.38;73.13;96737.81;5122097;57;20605;-74
2021/05/31 00:58:44;;;;;;;2.90;2.70;;;;;;;7.30;73.31;96733.72;5121278;57;20629;-74
2021/05/31 01:03:46;;;;;;;6.10;3.28;;;;;;;7.14;73.99;96732.53;5121252;57;20180;-74
2021/05/31 01:08:58;;;;;;;4.47;3.25;;;;;;;7.05;74.29;96726.09;5113202;57;20132;-74
2021/05/31 01:14:16;;;;;;;3.22;2.85;;;;;;;7.00;74.32;96730.13;5121125;57;20114;-74
2021/05/31 01:19:37;;;;;;;2.80;2.50;;;;;;;6.77;74.40;96727.50;5113039;57;20122;-74
2021/05/31 01:24:52;;;;;;;2.67;2.47;;;;;;;6.46;76.08;96729.00;5120982;57;20161;-74
2021/05/31 01:30:06;;;;;;;3.80;3.25;;;;;;;6.45;76.21;96721.94;5121580;57;20138;-75
2021/05/31 01:35:15;;;;;;;3.75;2.90;;;;;;;6.41;77.25;96715.78;5120922;57;20612;-74
2021/05/31 01:40:22;;;;;;;3.22;2.92;;;;;;;6.49;76.50;96708.91;5121065;57;20145;-74
2021/05/31 01:45:24;;;;;;;3.95;3.10;;;;;;;6.46;76.80;96702.34;5120633;57;20149;-74
2021/05/31 01:50:28;;;;;;;3.55;3.20;;;;;;;6.33;76.78;96692.44;5121200;57;20144;-74
2021/05/31 01:55:33;;;;;;;3.78;3.40;;;;;;;6.21;77.29;96693.84;5120654;57;20140;-74
2021/05/31 02:00:36;;;;;;;2.97;2.67;;;;;;;6.09;77.64;96693.72;5120765;57;20127;-74
2021/05/31 02:05:39;;;;;;;2.90;2.65;;;;;;;6.00;78.38;96694.28;5120825;57;20196;-74
2021/05/31 02:10:42;;;;;;;3.35;2.88;;;;;;;5.99;78.10;96689.25;5120137;57;20134;-74
2021/05/31 02:16:00;;;;;;;3.42;2.83;;;;;;;5.89;78.87;96688.25;5119810;57;20127;-74
2021/05/31 02:21:10;;;;;;;2.80;2.60;;;;;;;5.82;79.40;96691.88;5120141;57;20648;-74
2021/05/31 02:26:15;;;;;;;3.40;2.78;;;;;;;5.65;79.72;96690.25;5119851;57;20232;-74
2021/05/31 02:31:18;;;;;;;2.72;2.53;;;;;;;5.60;80.18;96687.22;5119882;57;20650;-76
2021/05/31 02:36:23;;;;;;;3.10;2.80;;;;;;;5.48;80.51;96676.88;5119365;57;20127;-74
2021/05/31 02:41:26;;;;;;;3.65;3.08;;;;;;;5.41;81.14;96683.25;5119368;57;20130;-74
2021/05/31 02:46:29;;;;;;;4.28;3.03;;;;;;;5.31;80.90;96681.50;5117950;57;20123;-74
2021/05/31 02:51:33;;;;;;;3.60;3.22;;;;;;;5.21;81.26;96667.97;5108380;57;20126;-74
2021/05/31 02:56:35;;;;;;;6.75;3.15;;;;;;;5.18;81.00;96660.63;5116667;57;20623;-74
2021/05/31 03:01:38;;;;;;;5.25;3.53;;;;;;;5.19;81.51;96654.72;5125890;58;20127;-74
2021/05/31 03:06:41;;;;;;;4.20;3.42;;;;;;;5.34;80.89;96652.47;5133199;58;20126;-75
2021/05/31 03:11:43;;;;;;;3.80;3.40;;;;;;;5.22;80.53;96653.09;5119520;58;20140;-74
2021/05/31 03:16:46;;;;;;;3.92;3.25;;;;;;;5.02;81.09;96659.31;5119367;58;20145;-74
2021/05/31 03:21:49;;;;;;;3.25;2.95;;;;;;;4.95;81.83;96655.94;5118961;58;20136;-73
2021/05/31 03:26:52;;;;;;;3.78;3.25;;;;;;;5.03;81.65;96657.34;5119230;58;20114;-75
2021/05/31 03:31:55;;;;;;;4.13;3.70;;;;;;;5.00;81.83;96649.94;5118880;58;20123;-74
2021/05/31 03:36:58;;;;;;;4.20;3.40;;;;;;;5.04;82.12;96653.44;5119544;58;20236;-74
2021/05/31 03:42:01;;;;;;;4.50;2.78;;;;;;;5.16;80.99;96663.00;5118487;58;20565;-75
2021/05/31 03:47:04;;;;;;;4.20;3.00;;;;;;;5.08;80.92;96659.59;5121078;57;20689;-74
2021/05/31 03:52:06;;;;;;;5.60;4.22;;;;;;;5.21;81.67;96657.81;5121764;57;20140;-74
2021/05/31 03:57:09;;;;;;;3.88;3.47;;;;;;;5.37;81.29;96659.88;5122043;57;20122;-74
2021/05/31 04:02:12;;;;;;;4.18;3.78;;;;;;;5.45;80.67;96659.31;5121770;57;20144;-74
2021/05/31 04:12:25;;;;;;;4.18;3.58;;;;;;;5.82;80.44;96663.69;5112744;57;20144;-75
2021/05/31 04:17:28;;;;;;;3.53;2.97;;;;;;;5.90;80.07;96664.34;5121894;57;20592;-74
2021/05/31 04:22:30;;;;;;;3.45;3.05;;;;;;;6.06;79.96;96667.16;5121448;57;20135;-74
2021/05/31 04:27:33;;;;;;;4.57;3.85;;;;;;;6.14;79.14;96652.06;5122436;57;20609;-75
2021/05/31 04:32:36;;;;;;;5.75;4.45;;;;;;;6.32;78.66;96658.72;5112863;57;20126;-75
2021/05/31 04:37:39;;;;;;;4.80;3.88;;;;;;;6.71;77.80;96668.03;5121637;57;20118;-74
2021/05/31 04:42:43;;;;;;;4.80;4.00;;;;;;;6.80;77.28;96674.47;5113235;57;20171;-74
2021/05/31 04:47:45;;;;;;;4.50;4.03;;;;;;;7.07;76.67;96658.50;5121361;57;20126;-74
2021/05/31 04:52:49;;;;;;;5.20;3.97;;;;;;;7.26;75.85;96658.81;5120801;57;20225;-74
2021/05/31 04:57:52;;;;;;;4.88;3.85;;;;;;;7.44;75.38;96670.13;5120744;57;20592;-73
2021/05/31 05:02:55;;;;;;;6.88;4.00;;;;;;;7.78;74.67;96678.59;5120506;57;20132;-74
2021/05/31 05:07:57;;;;;;;7.60;5.03;;;;;;;7.83;74.14;96676.09;5120297;57;20135;-74
2021/05/31 05:13:00;;;;;;;4.65;4.03;;;;;;;8.03;72.84;96662.19;5121204;57;20587;-75
2021/05/31 05:18:03;;;;;;;4.80;4.25;;;;;;;8.27;72.98;96670.97;5120804;57;20663;-73
2021/05/31 05:23:06;;;;;;;4.60;4.10;;;;;;;8.43;72.35;96674.41;5120401;57;20714;-75
2021/05/31 05:28:26;;;;;;;;;;;;;;;8.68;71.83;96661.84;5120782;57;20267;-74
2021/05/31 05:33:29;;;;;;;4.57;3.53;;;;;;;8.95;71.85;96662.16;5120391;57;19992;-74
2021/05/31 05:49:05;;;;;;;5.28;4.78;;;;;;;9.50;69.79;96649.66;5119625;57;20694;-74
2021/05/31 05:54:08;;;;;;;5.32;4.72;;;;;;;9.92;69.40;96659.97;5119918;57;20131;-75
2021/05/31 05:59:11;;;;;;;7.22;4.63;;;;;;;10.05;68.20;96662.66;5119856;57;20135;-74
2021/05/31 06:04:14;;;;;;;6.20;4.65;;;;;;;10.27;67.81;96668.19;5111654;57;20140;-74
2021/05/31 06:09:17;;;;;;;4.15;3.25;;;;;;;10.50;67.12;96662.16;5119346;57;20232;-74
2021/05/31 06:14:20;;;;;;;5.25;4.30;;;;;;;10.64;66.68;96675.44;5119898;57;20127;-74
2021/05/31 06:19:22;;;;;;;5.53;4.53;;;;;;;11.00;66.23;96663.72;5120032;57;20132;-74
2021/05/31 06:24:25;;;;;;;7.30;4.43;;;;;;;11.12;65.87;96663.63;5119466;57;20144;-75
2021/05/31 06:29:28;;;;;;;5.18;4.50;;;;;;;11.27;64.94;96661.81;5119585;57;20127;-74
2021/05/31 06:34:30;;;;;;;4.88;4.38;;;;;;;11.52;64.41;96666.28;5119285;57;20131;-74
2021/05/31 06:39:33;;;;;;;3.95;3.03;;;;;;;11.57;63.79;96662.16;5119319;57;20131;-75
2021/05/31 06:44:36;;;;;;;4.55;4.15;;;;;;;11.95;62.97;96666.03;5119358;57;20123;-75
2021/05/31 06:49:40;;;;;;;5.10;4.22;;;;;;;12.06;62.23;96662.78;5119261;57;20127;-75
2021/05/31 06:54:42;;;;;;;5.85;4.20;;;;;;;12.27;60.81;96667.38;5110927;57;20123;-75
2021/05/31 06:59:45;;;;;;;6.28;4.43;;;;;;;12.37;60.24;96665.34;5119066;57;20127;-75
2021/05/31 07:04:48;;;;;;;5.45;4.38;;;;;;;12.51;60.16;96656.38;5118902;58;20131;-74
2021/05/31 07:09:51;;;;;;;5.88;4.20;;;;;;;12.81;58.86;96664.44;5119417;58;20127;-74
2021/05/31 07:14:55;;;;;;;4.68;4.22;;;;;;;12.83;60.32;96659.19;5118893;58;20127;-75
2021/05/31 07:19:59;;;;;;;5.40;4.82;;;;;;;13.10;60.24;96671.41;5120158;57;20654;-75
2021/05/31 07:25:04;;;;;;;6.88;4.20;;;;;;;13.32;59.07;96664.34;5122376;57;20126;-75
2021/05/31 07:30:08;;;;;;;5.45;4.18;;;;;;;13.70;58.96;96662.88;5122176;57;20609;-75
2021/05/31 07:35:11;;;;;;;5.25;4.75;;;;;;;13.84;56.14;96656.59;5122015;57;20592;-74
2021/05/31 07:40:15;;;;;;;4.68;4.05;;;;;;;13.79;55.35;96668.34;5121890;57;20588;-74
2021/05/31 07:45:18;;;;;;;5.97;3.90;;;;;;;13.46;55.64;96662.88;5128683;57;20149;-75
2021/05/31 07:50:21;;;;;;;4.60;3.83;;;;;;;14.28;53.79;96660.97;5143774;57;20118;-75
2021/05/31 07:55:24;;;;;;;4.68;4.15;;;;;;;14.90;53.96;96662.78;5119224;57;20118;-75
2021/05/31 08:00:29;;;;;;;4.53;3.60;;;;;;;16.44;48.37;96666.75;5113902;57;20140;-76
2021/05/31 08:05:32;;;;;;;4.20;3.90;;;;;;;17.03;47.65;96667.03;5113298;57;20243;-75
2021/05/31 08:10:34;;;;;;;4.35;3.95;;;;;;;17.23;46.53;96658.53;5121656;57;20127;-75
2021/05/31 08:15:37;;;;;;;4.32;3.92;;;;;;;17.09;48.76;96659.50;5121771;57;20180;-75
2021/05/31 08:20:41;;;;;;;5.93;4.88;;;;;;;17.61;46.56;96664.91;5121504;57;20134;-75
2021/05/31 08:25:44;;;;;;;3.83;3.50;;;;;;;17.68;46.23;96656.81;5121387;57;20153;-76
2021/05/31 08:30:47;;;;;;;6.55;4.82;;;;;;;17.98;45.83;96662.75;5121800;57;20139;-76
2021/05/31 08:35:49;;;;;;;4.20;3.80;;;;;;;18.48;45.57;96652.50;5122574;57;20139;-76
2021/05/31 08:40:52;;;;;;;4.40;4.00;;;;;;;18.86;40.74;96664.25;5128461;57;20615;-76
2021/05/31 08:45:55;;;;;;;3.65;3.35;;;;;;;18.68;42.24;96657.09;5126110;57;20770;-74
2021/05/31 08:50:58;;;;;;;3.55;3.33;;;;;;;18.80;42.77;96660.66;5120427;57;20207;-75
2021/05/31 08:56:00;;;;;;;2.90;2.70;;;;;;;18.20;43.62;96648.88;5125004;57;20132;-76
2021/05/31 09:01:04;;;;;;;4.38;3.97;;;;;;;18.01;44.02;96650.56;5131832;57;20130;-76
2021/05/31 09:06:09;;;;;;;2.92;2.72;;;;;;;19.91;39.10;96648.00;5126688;57;20144;-76
2021/05/31 09:11:18;;;;;;;2.60;2.40;;;;;;;19.14;38.00;96651.72;5120384;57;20692;-75
2021/05/31 09:16:24;;;;;;;4.90;3.00;;;;;;;20.16;40.22;96646.06;5123642;57;20105;-76
2021/05/31 09:21:29;;;;;;;4.13;3.00;;;;;;;19.44;37.54;96646.38;5115563;57;20131;-76
2021/05/31 09:26:43;;;;;;;3.10;2.80;;;;;;;21.28;35.60;96664.44;5129841;57;20170;-76
2021/05/31 09:31:57;;;;;;;2.88;2.67;;;;;;;20.60;39.05;96653.50;5132055;57;20113;-75
2021/05/31 09:37:02;;;;;;;3.58;2.85;;;;;;;21.51;33.18;96645.31;5122939;57;20126;-76
2021/05/31 09:42:14;;;;;;;3.35;3.05;;;;;;;21.47;35.35;96655.31;5132865;57;20135;-76
2021/05/31 09:47:27;;;;;;;2.83;2.60;;;;;;;21.53;35.65;96648.34;5128417;57;20130;-76
2021/05/31 09:52:30;;;;;;;3.13;2.70;;;;;;;21.58;34.49;96658.00;5136723;57;20117;-74
2021/05/31 09:57:35;;;;;;;3.25;2.78;;;;;;;20.69;35.40;96630.72;5128638;57;20125;-76
2021/05/31 10:13:14;;;;;;;4.10;2.70;;;;;;;20.59;33.15;96641.50;5136292;57;20695;-76
2021/05/31 10:18:18;;;;;;;6.20;3.30;;;;;;;22.81;31.51;96633.41;5136736;57;20104;-75
2021/05/31 10:23:20;;;;;;;3.22;3.03;;;;;;;23.41;32.22;96639.31;5136191;57;20165;-75
2021/05/31 10:28:29;;;;;;;2.40;2.30;;;;;;;23.70;29.90;96624.13;5129090;57;20630;-76
2021/05/31 10:33:39;;;;;;;2.55;2.30;;;;;;;23.79;31.57;96629.34;5135386;57;20152;-75
2021/05/31 10:38:46;;;;;;;2.53;2.42;;;;;;;21.33;34.75;96635.53;5125282;57;20121;-75
2021/05/31 10:43:58;;;;;;;3.40;3.10;;;;;;;21.20;35.28;96632.59;5135139;57;20131;-76
2021/05/31 10:49:04;;;;;;;3.72;3.03;;;;;;;20.73;35.93;96620.72;5123113;57;20103;-75
2021/05/31 10:54:12;;;;;;;2.83;2.63;;;;;;;22.98;34.06;96625.41;5135368;57;20877;-75
2021/05/31 10:59:17;;;;;;;3.33;3.05;;;;;;;22.16;31.07;96619.75;5127251;57;20211;-75
2021/05/31 11:04:20;;;;;;;2.80;2.50;;;;;;;20.82;36.60;96632.91;5120913;57;20175;-75
2021/05/31 11:09:34;;;;;;;2.78;2.58;;;;;;;23.68;34.29;96621.09;5136007;57;20214;-76
2021/05/31 11:14:38;;;;;;;4.70;2.97;;;;;;;24.31;32.85;96622.13;5117854;57;20609;-76
2021/05/31 11:19:49;;;;;;;2.80;2.60;;;;;;;21.82;34.47;96618.63;5117605;57;20687;-75
2021/05/31 11:24:59;;;;;;;2.92;2.67;;;;;;;23.97;30.81;96622.06;5122487;57;20135;-76
2021/05/31 11:30:06;;;;;;;2.95;2.75;;;;;;;24.14;30.10;96616.84;5135555;57;20686;-75
2021/05/31 11:35:12;;;;;;;5.38;3.00;;;;;;;23.14;30.78;96609.50;5135395;57;20135;-76
2021/05/31 11:40:37;;;;;;;2.33;2.22;;;;;;;24.45;32.27;96612.31;5126744;57;20122;-75
2021/05/31 11:45:41;;;;;;;2.60;2.40;;;;;;;24.35;31.07;96611.25;5116311;57;20135;-76
2021/05/31 11:50:46;;;;;;;2.90;2.40;;;;;;;25.01;30.85;96603.28;5122693;57;20174;-76
2021/05/31 11:55:49;;;;;;;3.10;2.90;;;;;;;23.78;31.88;96599.59;5128733;57;20136;-75
2021/05/31 12:00:51;;;;;;;2.53;2.40;;;;;;;24.14;32.48;96591.44;5122148;57;20752;-75
2021/05/31 12:05:55;;;;;;;2.60;2.42;;;;;;;23.06;29.66;96598.13;5126104;57;20685;-75
2021/05/31 12:10:57;;;;;;;2.70;2.50;;;;;;;23.45;30.67;96600.28;5129291;57;20631;-75
2021/05/31 12:16:27;;;;;;;2.83;2.63;;;;;;;22.40;31.59;96588.69;5123554;57;20171;-74
2021/05/31 12:21:40;;;;;;;3.13;2.80;;;;;;;22.34;35.72;96582.38;5123803;57;20135;-75
2021/05/31 12:26:42;;;;;;;2.80;2.60;;;;;;;23.56;33.43;96588.00;5130952;57;20127;-75
2021/05/31 12:31:48;;;;;;;2.83;2.63;;;;;;;24.57;31.56;96576.84;5137202;57;20177;-75
2021/05/31 12:36:53;;;;;;;2.83;2.60;;;;;;;24.88;31.55;96568.13;5157974;57;20121;-75
2021/05/31 12:42:00;;;;;;;5.72;2.28;;;;;;;24.52;31.09;96567.19;5148645;57;20206;-76
2021/05/31 12:47:08;;;;;;;2.45;2.25;;;;;;;23.47;33.24;96575.84;5136402;57;20130;-76
2021/05/31 12:52:12;;;;;;;2.88;2.67;;;;;;;23.32;31.50;96569.19;5123191;57;20227;-75
2021/05/31 12:57:16;;;;;;;2.40;2.15;;;;;;;23.62;30.28;96574.53;5138132;57;20130;-76
2021/05/31 13:02:20;;;;;;;2.20;2.10;;;;;;;24.15;30.47;96573.94;5138405;57;20786;-75
2021/05/31 13:07:23;;;;;;;2.85;2.35;;;;;;;23.22;32.83;96571.69;5138116;57;20754;-76
2021/05/31 13:12:26;;;;;;;2.38;2.28;;;;;;;22.29;30.72;96552.25;5137685;57;20139;-75
2021/05/31 13:17:30;;;;;;;2.47;2.30;;;;;;;23.02;32.08;96560.28;5127581;57;20125;-75
2021/05/31 13:22:33;;;;;;;2.45;2.25;;;;;;;23.35;30.73;96546.34;5137993;57;20126;-76
2021/05/31 13:27:36;;;;;;;2.60;2.42;;;;;;;24.71;29.94;96550.03;5137688;57;20130;-76
2021/05/31 13:32:56;;;;;;;3.40;2.30;;;;;;;24.93;30.77;96557.97;5137365;57;20582;-76
2021/05/31 13:38:03;;;;;;;2.50;2.30;;;;;;;22.89;32.25;96543.38;5122644;57;20759;-75
2021/05/31 13:43:12;;;;;;;2.47;2.28;;;;;;;23.33;30.49;96548.16;5137902;57;20121;-76
2021/05/31 13:48:17;;;;;;;2.25;2.15;;;;;;;22.56;33.18;96539.00;5130779;57;20121;-76
2021/05/31 13:53:20;;;;;;;2.35;2.15;;;;;;;23.06;30.22;96543.81;5130627;57;20135;-76
2021/05/31 13:58:23;;;;;;;2.38;2.17;;;;;;;22.58;31.40;96542.06;5137708;57;20108;-76
2021/05/31 14:03:26;;;;;;;2.20;2.10;;;;;;;21.90;31.16;96532.34;5128452;57;20684;-76
2021/05/31 14:08:29;;;;;;;3.28;2.17;;;;;;;20.95;33.23;96537.53;5137690;57;20117;-76
2021/05/31 14:13:32;;;;;;;5.50;2.50;;;;;;;23.30;30.18;96537.97;5137262;57;20121;-76
2021/05/31 14:18:34;;;;;;;2.63;2.22;;;;;;;24.31;30.26;96521.22;5137159;57;20139;-76
2021/05/31 14:23:37;;;;;;;2.40;2.30;;;;;;;24.88;26.16;96530.59;5139178;57;20174;-77
2021/05/31 14:28:40;;;;;;;2.25;2.15;;;;;;;23.63;28.63;96539.38;5138228;57;20157;-77
2021/05/31 14:33:42;;;;;;;1.90;1.80;;;;;;;22.18;31.44;96517.88;5138029;57;20126;-78
2021/05/31 14:38:45;;;;;;;2.13;2.03;;;;;;;24.33;28.98;96520.66;5137932;57;20750;-78
2021/05/31 14:43:48;;;;;;;2.67;2.35;;;;;;;22.97;29.67;96519.63;5119034;57;20635;-78
2021/05/31 14:48:51;;;;;;;2.47;1.90;;;;;;;23.39;29.07;96523.44;5119882;57;20185;-77
2021/05/31 14:53:54;;;;;;;2.17;2.00;;;;;;;22.67;34.84;96522.72;5119989;57;20118;-78
2021/05/31 14:58:56;;;;;;;1.90;1.80;;;;;;;22.89;29.36;96518.72;5121818;57;20118;-78
2021/05/31 15:03:59;;;;;;;3.40;1.88;;;;;;;23.28;29.14;96506.72;5121213;57;20127;-78
2021/05/31 15:09:04;;;;;;;2.63;1.98;;;;;;;23.49;30.65;96504.78;5122355;58;20609;-78
2021/05/31 15:14:06;;;;;;;2.75;2.53;;;;;;;22.95;28.59;96482.00;5122190;58;20225;-77
2021/05/31 15:19:10;;;;;;;2.20;2.00;;;;;;;22.98;30.48;96501.41;5122635;58;20212;-78
2021/05/31 15:24:13;;;;;;;2.35;2.17;;;;;;;23.30;29.73;96493.59;5122372;58;20140;-78
2021/05/31 15:29:15;;;;;;;3.42;1.77;;;;;;;22.05;31.46;96496.81;5121388;58;20135;-77
2021/05/31 15:34:17;;;;;;;1.80;1.70;;;;;;;21.43;32.21;96489.72;5120040;58;20611;-78
2021/05/31 15:39:20;;;;;;;2.67;1.90;;;;;;;21.71;32.73;96481.66;5119468;57;20127;-77
2021/05/31 15:44:27;;;;;;;2.15;2.00;;;;;;;20.63;34.13;96479.09;5124270;57;20135;-76
2021/05/31 15:49:30;;;;;;;1.90;1.80;;;;;;;20.59;33.42;96475.84;5122003;57;20118;-75
2021/05/31 15:54:32;;;;;;;1.88;1.75;;;;;;;20.12;34.15;96479.28;5119842;57;20605;-76
2021/05/31 15:59:35;;;;;;;1.80;1.55;;;;;;;19.93;35.88;96476.34;5122099;57;20218;-76
2021/05/31 16:04:38;;;;;;;2.22;1.70;;;;;;;19.83;33.64;96469.56;5121334;57;20135;-76
2021/05/31 16:09:41;;;;;;;1.70;1.60;;;;;;;20.03;34.25;96486.75;5121787;57;20644;-75
2021/05/31 16:14:44;;;;;;;1.67;1.58;;;;;;;19.33;34.07;96472.63;5121378;57;20296;-74
2021/05/31 16:19:47;;;;;;;1.38;1.30;;;;;;;19.36;35.24;96482.81;5121649;57;20136;-75
2021/05/31 16:30:03;;;;;;;2.10;1.50;;;;;;;19.47;35.38;96482.00;5121916;57;20158;-77
2021/05/31 16:35:07;;;;;;;1.70;1.60;;;;;;;19.10;36.55;96471.19;5121145;57;20127;-76
2021/05/31 16:40:10;;;;;;;2.03;1.77;;;;;;;18.74;36.15;96469.53;5120570;57;20233;-78
2021/05/31 16:45:13;;;;;;;1.98;1.60;;;;;;;18.83;37.03;96458.81;5127250;57;20131;-77
2021/05/31 16:50:16;;;;;;;1.80;1.70;;;;;;;18.54;37.21;96470.59;5134372;57;20118;-78
2021/05/31 16:55:19;;;;;;;2.03;1.92;;;;;;;18.23;37.09;96473.63;5138317;57;20685;-77
2021/05/31 17:00:24;;;;;;;1.90;1.80;;;;;;;18.77;36.28;96468.50;5128840;57;20131;-76
2021/05/31 17:05:29;;;;;;;4.30;2.00;;;;;;;18.53;36.03;96457.84;5119940;57;20127;-75
2021/05/31 17:20:57;;;;;;;1.95;1.85;;;;;;;18.57;37.06;96466.75;5119004;57;20140;-76
2021/05/31 17:26:00;;;;;;;1.85;1.75;;;;;;;18.52;36.36;96461.94;5138556;57;20127;-76
2021/05/31 17:36:08;;;;;;;1.67;1.58;;;;;;;18.53;38.17;96461.44;5142683;57;20134;-74
2021/05/31 17:41:11;;;;;;;1.60;1.50;;;;;;;18.86;36.25;96459.81;5122038;57;20235;-75
2021/05/31 17:46:14;;;;;;;3.45;1.55;;;;;;;19.41;36.00;96459.59;5126561;57;20117;-74
2021/05/31 17:51:16;;;;;;;1.60;1.50;;;;;;;19.82;35.24;96463.19;5129796;57;20135;-76
2021/05/31 17:56:19;;;;;;;1.42;1.38;;;;;;;19.01;36.38;96468.69;5121688;57;20601;-75
2021/05/31 18:01:21;;;;;;;1.38;1.27;;;;;;;18.83;35.84;96469.25;5129418;57;20121;-75
2021/05/31 18:06:24;;;;;;;1.50;1.50;;;;;;;18.09;39.40;96467.00;5128483;57;20183;-75
2021/05/31 18:11:26;;;;;;;1.88;1.52;;;;;;;17.61;39.16;96478.44;5117205;57;20565;-75
2021/05/31 18:16:29;;;;;;;2.03;1.50;;;;;;;16.88;42.51;96484.22;5127134;57;20126;-75
2021/05/31 18:21:32;;;;;;;1.70;1.38;;;;;;;16.58;42.87;96474.69;5129332;57;20253;-75
2021/05/31 18:26:38;;;;;;;1.80;1.40;;;;;;;16.36;43.64;96475.25;5117671;57;20522;-75
2021/05/31 18:31:42;;;;;;;2.20;1.75;;;;;;;15.97;44.92;96486.09;5129890;57;20113;-75
2021/05/31 18:36:47;;;;;;;2.10;1.40;;;;;;;15.62;45.89;96475.16;5127519;57;20121;-76
2021/05/31 18:41:50;;;;;;;1.83;1.73;;;;;;;15.40;47.99;96480.47;5120205;57;20139;-75
2021/05/31 18:46:52;;;;;;;1.65;1.55;;;;;;;14.88;49.67;96481.66;5116686;57;20247;-75
2021/05/31 18:51:55;;;;;;;2.00;1.58;;;;;;;14.76;50.01;96494.63;5119229;57;20654;-75
2021/05/31 18:56:57;;;;;;;2.00;1.80;;;;;;;14.44;50.33;96484.56;5117807;57;20754;-75
2021/05/31 19:02:00;;;;;;;1.80;1.70;;;;;;;14.16;52.40;96492.47;5118993;57;20650;-74
2021/05/31 19:07:02;;;;;;;1.92;1.80;;;;;;;13.98;55.56;96489.13;5119160;58;20135;-75
2021/05/31 19:12:06;;;;;;;2.78;1.75;;;;;;;13.66;57.67;96493.63;5126216;57;20125;-75
2021/05/31 19:17:09;;;;;;;2.03;1.88;;;;;;;13.34;60.11;96494.59;5136354;57;20135;-75
2021/05/31 19:22:12;;;;;;;1.67;1.58;;;;;;;13.11;60.75;96492.63;5134627;57;20638;-76
2021/05/31 19:27:15;;;;;;;4.60;1.85;;;;;;;13.04;61.19;96498.50;5122343;57;20139;-75
2021/05/31 19:32:18;;;;;;;4.93;1.90;;;;;;;12.85;61.33;96506.94;5121990;57;20140;-75
2021/05/31 19:37:21;;;;;;;1.80;1.60;;;;;;;12.36;62.24;96492.75;5135413;57;20131;-75
2021/05/31 19:42:24;;;;;;;2.05;1.88;;;;;;;12.24;63.62;96511.13;5122448;57;20857;-75
2021/05/31 19:47:27;;;;;;;1.90;1.80;;;;;;;12.06;63.97;96518.75;5121674;57;20122;-75
2021/05/31 19:52:30;;;;;;;2.42;1.98;;;;;;;11.88;65.25;96518.81;5123403;57;20659;-75
2021/05/31 20:03:02;;;;;;;2.63;2.05;;;;;;;11.61;65.91;96518.84;5117667;57;20197;-75
2021/05/31 20:08:05;;;;;;;1.90;1.70;;;;;;;11.53;66.04;96513.63;5130757;57;20131;-74
2021/05/31 20:13:08;;;;;;;1.90;1.70;;;;;;;11.39;66.49;96513.50;5131025;57;20113;-75
2021/05/31 20:18:14;;;;;;;1.83;1.67;;;;;;;11.44;65.61;96512.88;5129938;57;20113;-74
2021/05/31 20:23:17;;;;;;;1.70;1.60;;;;;;;11.17;66.04;96521.94;5126649;57;20136;-73
2021/05/31 20:28:20;;;;;;;2.22;1.88;;;;;;;11.11;67.06;96523.78;5128431;57;20139;-74
2021/05/31 20:33:23;;;;;;;2.17;2.00;;;;;;;10.80;68.00;96520.41;5131381;57;20130;-73
2021/05/31 20:38:26;;;;;;;2.05;1.70;;;;;;;10.75;67.78;96516.25;5132658;57;20674;-72
2021/05/31 20:43:29;;;;;;;1.80;1.70;;;;;;;10.76;68.36;96511.50;5127646;57;20163;-71
2021/05/31 20:48:32;;;;;;;2.03;1.80;;;;;;;10.62;67.97;96523.91;5131778;57;20131;-73
2021/05/31 20:53:34;;;;;;;1.90;1.80;;;;;;;10.40;68.08;96516.94;5132041;57;20343;-73
2021/05/31 20:58:40;;;;;;;4.30;1.70;;;;;;;10.24;68.46;96522.72;5130986;57;20113;-74
2021/05/31 21:03:49;;;;;;;1.80;1.70;;;;;;;10.21;69.42;96521.63;5123539;57;21881;-74
2021/05/31 21:08:58;;;;;;;1.80;1.70;;;;;;;9.92;70.88;96527.47;5120974;57;20135;-74
2021/05/31 21:14:02;;;;;;;1.63;1.52;;;;;;;9.65;71.53;96512.75;5120717;57;20148;-74
2021/05/31 21:19:05;;;;;;;2.33;2.00;;;;;;;9.66;71.02;96519.78;5121053;57;20192;-74
2021/05/31 21:24:08;;;;;;;2.00;1.90;;;;;;;9.54;71.88;96518.66;5120275;57;20223;-74
2021/05/31 21:29:10;;;;;;;2.25;2.05;;;;;;;9.43;72.40;96510.00;5120826;57;20721;-74
2021/05/31 21:34:13;;;;;;;1.90;1.80;;;;;;;9.34;73.12;96509.94;5120395;57;20136;-75
2021/05/31 21:39:22;;;;;;;4.20;1.95;;;;;;;9.43;72.94;96506.50;5123574;57;20127;-75
2021/05/31 21:44:24;;;;;;;2.00;1.90;;;;;;;9.41;72.79;96508.94;5120037;57;20130;-73
2021/05/31 21:49:27;;;;;;;3.38;2.30;;;;;;;9.33;71.66;96509.19;5120780;57;20128;-74
2021/05/31 21:54:30;;;;;;;3.53;2.20;;;;;;;9.14;72.30;96517.75;5121514;57;20605;-73
2021/05/31 21:59:33;;;;;;;3.83;2.55;;;;;;;9.13;72.37;96510.72;5123724;57;20127;-74
2021/05/31 22:04:36;;;;;;;2.83;2.28;;;;;;;9.05;72.78;96507.44;5123096;57;20121;-74
2021/05/31 22:09:39;;;;;;;2.40;2.20;;;;;;;8.96;73.09;96512.09;5121590;57;20188;-74
2021/05/31 22:14:42;;;;;;;2.65;2.45;;;;;;;8.87;73.91;96509.25;5129914;57;20808;-73
2021/05/31 22:24:52;;;;;;;2.58;2.38;;;;;;;8.60;73.98;96494.03;5140399;57;20122;-74
2021/05/31 22:35:17;;;;;;;2.88;2.67;;;;;;;8.57;73.67;96503.19;5121235;57;20126;-73
2021/05/31 22:40:44;;;;;;;2.63;2.42;;;;;;;8.61;74.02;96489.31;5124658;57;20236;-74
2021/05/31 23:17:34;;;;;;;2.70;2.50;;;;;;;7.94;77.19;96491.44;5102561;58;20276;-74
2021/05/31 23:22:36;;;;;;;2.70;2.50;;;;;;;8.01;77.60;96471.97;5118157;58;20136;-74
2021/05/31 23:27:39;;;;;;;2.47;2.28;;;;;;;7.96;77.82;96483.53;5119071;58;20131;-74
2021/05/31 23:32:42;;;;;;;2.42;2.20;;;;;;;8.02;77.56;96476.28;5118438;58;20127;-74
2021/05/31 23:37:53;;;;;;;2.67;2.47;;;;;;;7.78;78.42;96475.03;5118742;58;20241;-74
2021/05/31 23:42:56;;;;;;;2.70;2.50;;;;;;;7.71;78.37;96475.28;5118473;58;20135;-74
2021/05/31 23:47:59;;;;;;;2.80;2.58;;;;;;;7.64;79.26;96467.25;5118582;58;20131;-74
2021/05/31 23:53:01;;;;;;;2.40;2.20;;;;;;;7.62;78.66;96467.69;5118418;58;20573;-74
2021/05/31 23:58:04;;;;;;;3.15;2.75;;;;;;;7.58;78.77;96463.50;5118971;58;20162;-74
